Flight Track Log - Related Links

Times and Time Zones

All times are in EDT time to prevent confusion due to time zone crossing. See the LXJ342 flight status page for this flight to view local times or setup timezone preferences in your user account.

Time Position Orientation Groundspeed Altitude Reporting Facility
EDT Latitude Longitude Course Direction KTS MPH feet Rate Location/Type
Wed 10:58:43 PM 40.9167 -74.0333 288° West 241 277 2,000  Level New York TRACON
Wed 10:59:43 PM 40.9333 -74.1000 288° West 211 243 2,600 1,350 Climbing New York TRACON
Wed 11:00:43 PM 40.9167 -74.1833 255° West 233 268 4,700 2,250 Climbing New York TRACON
Wed 11:01:43 PM 40.9000 -74.2833 258° West 261 300 7,100 2,263 Climbing New York TRACON
Wed 11:02:37 PM 40.9000 -74.3667 270° West 276 318 9,000 2,106 Climbing New York TRACON
Wed 11:03:17 PM 40.8906 -74.4192 257° West 282 325 10,400 2,460 Climbing New York Center
Wed 11:04:17 PM 40.8953 -74.5400 273° West 304 350 13,100 2,319 Climbing New York Center
Wed 11:05:16 PM 40.8853 -74.6519 263° West 333 383 15,000 1,800 Climbing New York Center
Wed 11:06:17 PM 40.8678 -74.7992 261° West 372 428 16,700 1,934 Climbing New York Center
Wed 11:07:17 PM 40.8486 -74.9353 259° West 382 440 18,900 2,083 Climbing New York Center
Wed 11:08:18 PM 40.8289 -75.0794 260° West 387 445 20,900 1,967 Climbing New York Center
Wed 11:09:19 PM 40.8108 -75.2264 261° West 401 461 22,900 2,017 Climbing New York Center
Wed 11:10:17 PM 40.7889 -75.3647 258° West 418 481 24,900 1,932 Climbing New York Center
Wed 11:11:17 PM 40.7661 -75.5194 259° West 429 494 26,700 1,700 Climbing New York Center
Wed 11:12:17 PM 40.7533 -75.6800 264° West 435 501 28,300 1,475 Climbing New York Center
Wed 11:13:19 PM 40.7728 -75.8594 278° West 443 510 29,700 1,200 Climbing New York Center
Wed 11:14:17 PM 40.7925 -76.0283 279° West 456 525 30,700 1,008 Climbing New York Center
Wed 11:15:18 PM 40.8117 -76.2025 278° West 470 541 31,700 942 Climbing New York Center
Wed 11:16:18 PM 40.8308 -76.3714 279° West 470 541 32,600 942 Climbing New York Center
Wed 11:17:19 PM 40.8542 -76.5406 280° West 470 541 33,600 1,008 Climbing New York Center
Wed 11:18:17 PM 40.8708 -76.7067 278° West 470 541 34,600 958 Climbing New York Center
Wed 11:19:18 PM 40.8892 -76.8786 278° West 470 541 35,500 850 Climbing New York Center
Wed 11:20:17 PM 40.9075 -77.0450 278° West 470 541 36,300 756 Climbing New York Center
Wed 11:21:17 PM 40.9239 -77.2058 278° West 470 541 37,000 650 Climbing New York Center
Wed 11:22:17 PM 40.9442 -77.3700 279° West 465 535 37,600 349 Climbing New York Center
Wed 11:24:09 PM 40.9744 -77.6678 278° West 458 527 38,000 140 Climbing Cleveland Center
Wed 11:25:09 PM 40.9911 -77.8350 278° West 463 533 38,000  Level Cleveland Center
Wed 11:26:09 PM 41.0094 -78.0019 278° West 463 533 38,000  Level Cleveland Center
Wed 11:27:09 PM 41.0258 -78.1719 277° West 463 533 38,000 300 Level Cleveland Center
Wed 11:28:09 PM 41.0461 -78.3503 279° West 463 533 38,600 600 Climbing Cleveland Center
Wed 11:29:09 PM 41.0617 -78.5178 277° West 463 533 39,200 550 Climbing Cleveland Center
Wed 11:30:09 PM 41.0769 -78.6742 277° West 458 527 39,700 400 Climbing Cleveland Center
Wed 11:31:09 PM 41.0897 -78.8336 276° West 447 514 40,000 150 Climbing Cleveland Center
Wed 11:32:09 PM 41.1047 -78.9931 277° West 442 509 40,000  Level Cleveland Center
Wed 11:33:09 PM 41.1214 -79.1553 278° West 442 509 40,000  Level Cleveland Center
Wed 11:34:09 PM 41.1339 -79.3178 276° West 442 509 40,000  Level Cleveland Center
Wed 11:35:09 PM 41.1481 -79.4800 277° West 442 509 40,000  Level Cleveland Center
Wed 11:36:09 PM 41.1639 -79.6453 277° West 442 509 40,000  Level Cleveland Center
Wed 11:37:09 PM 41.1756 -79.8136 275° West 448 516 40,000  Level Cleveland Center
Wed 11:38:09 PM 41.1869 -79.9622 276° West 454 522 40,000  Level Cleveland Center
Wed 11:39:09 PM 41.2044 -80.1389 278° West 448 516 40,000  Level Cleveland Center
Wed 11:40:09 PM 41.2156 -80.3017 275° West 448 516 40,000  Level Cleveland Center
Wed 11:41:09 PM 41.2261 -80.4506 275° West 448 516 40,000  Level Cleveland Center
Wed 11:42:09 PM 41.2386 -80.6108 276° West 443 510 40,000  Level Cleveland Center
Wed 11:43:09 PM 41.2511 -80.7764 276° West 448 516 40,000  Level Cleveland Center
Wed 11:44:09 PM 41.2653 -80.9561 276° West 448 516 40,000  Level Cleveland Center
Wed 11:45:09 PM 41.2769 -81.1192 275° West 448 516 40,000  Level Cleveland Center
Wed 11:46:09 PM 41.2886 -81.2878 275° West 448 516 40,000  Level Cleveland Center
Wed 11:47:09 PM 41.3022 -81.4511 276° West 448 516 40,000  Level Cleveland Center
Wed 11:48:09 PM 41.3153 -81.6117 276° West 443 510 40,000  Level Cleveland Center
Wed 11:49:09 PM 41.3242 -81.7719 274° West 443 510 40,000  Level Cleveland Center
Wed 11:50:09 PM 41.3328 -81.9353 274° West 443 510 40,000  Level Cleveland Center
Wed 11:51:09 PM 41.3453 -82.0989 276° West 443 510 40,000  Level Cleveland Center
Wed 11:52:09 PM 41.3533 -82.2678 274° West 451 519 40,000  Level Cleveland Center
Wed 11:53:09 PM 41.3633 -82.4286 275° West 446 513 40,000  Level Cleveland Center
Wed 11:54:09 PM 41.3733 -82.5892 275° West 446 513 40,000  Level Cleveland Center
Wed 11:55:09 PM 41.3808 -82.7500 274° West 446 513 40,000  Level Cleveland Center
Wed 11:56:09 PM 41.3900 -82.9164 274° West 446 513 40,000  Level Cleveland Center
Wed 11:57:09 PM 41.4011 -83.0800 275° West 446 513 40,000  Level Cleveland Center
Wed 11:58:09 PM 41.4064 -83.2217 273° West 441 507 40,000  Level Cleveland Center
Wed 11:59:09 PM 41.4150 -83.3853 274° West 441 507 40,000  Level Cleveland Center
Thu 12:00:09 AM 41.4233 -83.5492 274° West 441 507 40,000  Level Cleveland Center
Thu 12:01:09 AM 41.4314 -83.7100 274° West 441 507 40,000  Level Cleveland Center
Thu 12:02:09 AM 41.4375 -83.8711 273° West 441 507 40,000  Level Cleveland Center
Thu 12:03:09 AM 41.4453 -84.0322 274° West 446 513 40,000  Level Cleveland Center
Thu 12:05:02 AM 41.4631 -84.3328 275° West 431 496 40,000  Level Chicago Center
Thu 12:06:03 AM 41.4697 -84.4911 273° West 430 495 40,000 -49 Level Chicago Center
Thu 12:07:04 AM 41.4767 -84.6503 273° West 431 496 39,900 -744 Descending Chicago Center
Thu 12:08:04 AM 41.4831 -84.8119 273° West 437 503 38,500 -1,835 Descending Chicago Center
Thu 12:09:05 AM 41.4886 -84.9747 273° West 439 505 36,200 -2,508 Descending Chicago Center
Thu 12:10:06 AM 41.4925 -85.1369 272° West 439 505 33,400 -2,678 Descending Chicago Center
Thu 12:11:06 AM 41.4953 -85.2981 271° West 431 496 30,800 -2,579 Descending Chicago Center
Thu 12:12:07 AM 41.4978 -85.4572 271° West 423 487 28,200 -2,579 Descending Chicago Center
Thu 12:13:07 AM 41.5031 -85.6086 273° West 403 464 25,600 -2,529 Descending Chicago Center
Thu 12:14:08 AM 41.5058 -85.7525 272° West 390 449 23,100 -2,459 Descending Chicago Center
Thu 12:15:09 AM 41.5089 -85.8944 272° West 385 443 20,600 -2,281 Descending Chicago Center
Thu 12:16:09 AM 41.5111 -86.0300 271° West 372 428 18,500 -1,983 Descending Chicago Center
Thu 12:17:10 AM 41.5136 -86.1656 271° West 367 422 16,600 -2,083 Descending Chicago Center
Thu 12:18:10 AM 41.5167 -86.3000 272° West 362 417 14,300 -2,182 Descending Chicago Center
Thu 12:19:11 AM 41.5175 -86.4333 271° West 359 413 12,200 -1,574 Descending Chicago Center
Thu 12:20:12 AM 41.5203 -86.5614 272° West 349 402 11,100 -1,041 Descending Chicago Center
Thu 12:21:12 AM 41.5208 -86.6864 270° West 340 391 10,100 -545 Descending Chicago Center
Thu 12:22:13 AM 41.5203 -86.8283 270° West 332 382 10,000 -50 Descending Chicago Center
Thu 12:23:13 AM 41.5178 -86.9525 269° West 334 384 10,000  Level Chicago Center
Thu 12:24:14 AM 41.5164 -87.0758 269° West 334 384 10,000  Level Chicago Center
Thu 12:24:47 AM 41.5167 -87.1500 270° West 333 383 10,000 -121 Level Chicago TRACON
Thu 12:25:53 AM 41.5167 -87.2667 270° West 289 333 9,800 -851 Descending Chicago TRACON
Thu 12:27:15 AM 41.5117 -87.3997 267° West 265 305 7,900 -1,427 Descending Chicago Center
Thu 12:28:16 AM 41.5108 -87.4956 269° West 261 300 6,400 -1,438 Descending Chicago Center
Thu 12:29:16 AM 41.5097 -87.5889 269° West 257 296 5,000 -1,140 Descending Chicago Center
Thu 12:30:17 AM 41.5089 -87.6803 269° West 253 291 4,100 -496 Descending Chicago Center
Thu 12:31:17 AM 41.5103 -87.7736 271° West 252 290 4,000 -50 Descending Chicago Center
Thu 12:32:18 AM 41.5417 -87.8481 299° West 258 297 4,000 -50 Level Chicago Center
Thu 12:33:18 AM 41.6008 -87.8983 328° Northwest 257 296 3,900 -645 Descending Chicago Center
Thu 12:34:19 AM 41.6764 -87.9400 338° Northwest 267 307 2,700 -694 Descending Chicago Center
Thu 12:35:19 AM 41.7047 -87.8661 63° Northeast 242 278 2,500 -270 Descending Chicago Center
Thu 12:35:48 AM 41.7167 -87.8333 64° Northeast 200 230 2,300 -694 Descending Chicago TRACON
Thu 12:37:20 AM 41.7656 -87.7775 40° Northeast 167 192 1,100 -588 Descending Chicago Center
Thu 12:38:21 AM 41.7914 -87.7453 43° Northeast 157 181 800 -295 Descending Chicago Center

Login

Don't have an account? Register now (free) for customized features, flight alerts, and more!